Weather at Andros Town Airport

Public forecast

Using degrees Celsius for public forecast. Weather courtesy of forecast.io.

Closest aviation weather report (METAR) to Andros Town Airport

Closest report is Lynden Pindling International Airport, 27.2 nm (50.4 km) NE. Retrieved 2020/11/24 17:00 UTC (12 minutes ago):

MYNN 241700Z 09014KT 9999 SCT020 27/20 A3012

Closest aviation forecast (TAF) to Andros Town Airport

Closest forecast is Lynden Pindling International Airport, 27.2 nm (50.4 km) NE. Retrieved 2020/11/24 12:51 UTC (4 hours ago):

TAF MYNN 241100Z 2412/2512 05010KT 9999 SCT020 PROB30 TEMPO 2420/2424 05015KT 8000 SHRA SCT016CB